createdAt,value
2019-05-05T03:26:24.972Z,91.80
2019-05-05T03:28:58.244Z,91.70
2019-05-05T03:31:27.419Z,91.70
2019-05-05T03:33:56.350Z,91.40
2019-05-05T03:36:27.058Z,91.50
2019-05-05T03:38:56.177Z,91.80
2019-05-05T03:41:27.698Z,91.80
2019-05-05T03:44:16.690Z,91.60
2019-05-05T03:46:45.628Z,91.30
2019-05-05T03:49:14.331Z,91.40
2019-05-05T03:51:43.846Z,91.80
2019-05-05T03:54:14.595Z,91.70
2019-05-05T03:56:44.138Z,91.60
2019-05-05T03:59:14.138Z,91.70
2019-05-05T04:04:58.016Z,92.20
2019-05-05T04:07:28.554Z,92.10
2019-05-05T04:09:59.166Z,92.20
2019-05-05T04:12:28.007Z,92.20
2019-05-05T04:14:57.500Z,92.20
2019-05-05T04:17:41.682Z,92.50
2019-05-05T04:20:21.490Z,92.60
2019-05-05T04:22:50.574Z,92.30
2019-05-05T04:25:19.330Z,92.60
2019-05-05T04:27:55.712Z,92.80
2019-05-05T04:30:25.516Z,92.70
2019-05-05T04:32:54.620Z,92.50
2019-05-05T04:35:24.614Z,92.30
2019-05-05T04:37:54.584Z,92.20
2019-05-05T04:40:25.996Z,92.40
2019-05-05T04:42:55.073Z,92.20
2019-05-05T04:45:24.242Z,92.30
2019-05-05T04:48:00.610Z,92.20
2019-05-05T04:50:37.164Z,92.10
2019-05-05T04:53:13.592Z,92.10
2019-05-05T04:55:44.179Z,92.20
2019-05-05T04:58:13.675Z,92.00
2019-05-05T05:00:44.094Z,91.90
2019-05-05T05:03:43.775Z,91.90
2019-05-05T05:06:15.893Z,91.70
2019-05-05T05:08:44.911Z,91.60
2019-05-05T05:11:17.656Z,91.50
2019-05-05T05:13:46.634Z,91.40
2019-05-05T05:16:15.457Z,91.20
2019-05-05T05:18:44.710Z,91.30
2019-05-05T05:21:15.407Z,91.40
2019-05-05T05:23:44.549Z,91.50
2019-05-05T05:26:13.856Z,91.40
2019-05-05T05:28:44.806Z,91.60
2019-05-05T05:31:14.099Z,91.40
2019-05-05T05:33:43.638Z,91.40
2019-05-05T05:36:14.249Z,91.30
2019-05-05T05:38:44.440Z,91.30
2019-05-05T05:41:30.894Z,91.20
2019-05-05T05:44:19.563Z,91.10
2019-05-05T05:47:08.610Z,91.20
2019-05-05T05:49:41.454Z,91.10
2019-05-05T05:52:16.292Z,91.20
2019-05-05T05:54:40.900Z,91.40
2019-05-05T05:57:09.613Z,91.50
2019-05-05T05:59:38.254Z,92.00
2019-05-05T06:02:11.805Z,92.10
2019-05-05T06:04:37.162Z,92.30
2019-05-05T06:07:05.849Z,92.80
2019-05-05T06:09:34.674Z,92.60
2019-05-05T06:12:03.650Z,92.70
2019-05-05T06:14:34.920Z,92.60
2019-05-05T06:17:07.850Z,92.80
2019-05-05T06:19:36.683Z,92.70
2019-05-05T06:22:10.084Z,92.40
2019-05-05T06:24:38.966Z,92.10
2019-05-05T06:27:07.524Z,92.00
2019-05-05T06:29:36.288Z,92.00
2019-05-05T06:32:06.398Z,91.70
2019-05-05T06:34:35.094Z,91.40
2019-05-05T06:37:04.324Z,91.50
2019-05-05T06:39:33.543Z,91.60
2019-05-05T06:42:06.873Z,92.00
2019-05-05T06:44:37.377Z,91.30
2019-05-05T06:47:10.358Z,91.30
2019-05-05T06:49:40.705Z,91.30
2019-05-05T06:52:09.823Z,91.40
2019-05-05T06:54:38.633Z,91.30
2019-05-05T06:57:10.591Z,91.00
2019-05-05T06:59:39.315Z,90.10
2019-05-05T07:02:08.344Z,89.10
2019-05-05T07:04:54.662Z,90.10
2019-05-05T07:07:23.691Z,90.50
2019-05-05T07:09:54.315Z,90.40
2019-05-05T07:12:28.272Z,90.70
2019-05-05T07:14:58.673Z,90.60
2019-05-05T07:17:36.261Z,90.40
2019-05-05T07:20:08.331Z,89.70
2019-05-05T07:22:37.086Z,89.40
2019-05-05T07:25:06.680Z,87.50
2019-05-05T07:27:35.527Z,87.20
2019-05-05T07:30:07.071Z,85.80
2019-05-05T07:32:35.930Z,85.70
2019-05-05T07:35:24.688Z,84.50
2019-05-05T07:37:53.849Z,84.50
2019-05-05T07:40:26.395Z,85.00
2019-05-05T07:42:55.135Z,83.60
2019-05-05T07:45:36.576Z,83.60
2019-05-05T07:48:19.914Z,85.00
2019-05-05T07:51:14.277Z,83.30
2019-05-05T07:53:48.193Z,80.50
2019-05-05T07:56:19.834Z,81.20
2019-05-05T07:58:48.565Z,80.50
2019-05-05T08:01:18.071Z,80.10
2019-05-05T08:03:46.851Z,81.10
2019-05-05T08:06:17.735Z,81.40
2019-05-05T08:08:55.743Z,81.80
2019-05-05T08:11:24.469Z,81.00
2019-05-05T08:13:54.719Z,79.20
2019-05-05T08:16:25.401Z,80.80
2019-05-05T08:19:13.809Z,78.40
2019-05-05T08:21:43.714Z,78.80
2019-05-05T08:24:16.119Z,77.90
2019-05-05T08:27:06.213Z,75.40
2019-05-05T08:29:36.571Z,75.00
2019-05-05T08:32:07.338Z,73.00
2019-05-05T08:34:36.037Z,73.50
2019-05-05T08:37:08.555Z,72.50
2019-05-05T08:39:37.217Z,74.90
2019-05-05T08:42:05.955Z,72.60
2019-05-05T08:44:37.207Z,73.80
2019-05-05T08:47:06.029Z,74.70
2019-05-05T08:49:34.957Z,76.10
2019-05-05T08:52:04.158Z,76.60
2019-05-05T08:54:34.388Z,77.20
2019-05-05T08:57:04.345Z,77.90
2019-05-05T08:59:34.493Z,79.20
2019-05-05T09:02:04.522Z,77.00
2019-05-05T09:04:34.002Z,77.60
2019-05-05T09:07:04.909Z,78.20
2019-05-05T09:09:33.620Z,76.10
2019-05-05T09:12:06.773Z,74.40
2019-05-05T09:14:37.026Z,74.20
2019-05-05T09:17:06.002Z,75.40
2019-05-05T09:19:34.794Z,73.20
2019-05-05T09:22:06.746Z,74.30
2019-05-05T09:24:41.892Z,74.00
2019-05-05T09:27:14.160Z,71.20
2019-05-05T09:29:44.141Z,71.50
2019-05-05T09:32:13.864Z,70.30
2019-05-05T09:34:43.609Z,69.60
2019-05-05T09:37:14.350Z,69.60
2019-05-05T09:39:43.892Z,69.50
2019-05-05T09:42:29.105Z,71.10
2019-05-05T09:47:50.349Z,69.90
2019-05-05T09:50:18.980Z,68.70
2019-05-05T09:52:47.730Z,66.60
2019-05-05T09:55:16.381Z,66.50
2019-05-05T09:57:45.021Z,62.50
2019-05-05T10:00:14.686Z,61.10
2019-05-05T10:02:44.188Z,61.70
2019-05-05T10:05:14.535Z,60.40
2019-05-05T10:07:44.078Z,59.90
2019-05-05T10:10:13.810Z,60.30
2019-05-05T10:12:44.382Z,59.50
2019-05-05T10:15:13.928Z,58.30
2019-05-05T10:17:43.173Z,59.40
2019-05-05T10:20:11.807Z,59.10
2019-05-05T10:22:40.447Z,60.40
2019-05-05T10:25:29.311Z,59.40
2019-05-05T10:27:58.263Z,58.60
2019-05-05T10:30:26.935Z,58.10
2019-05-05T10:32:55.458Z,59.80
2019-05-05T10:35:24.261Z,58.70
2019-05-05T10:37:54.483Z,57.80
2019-05-05T10:40:35.778Z,57.40
2019-05-05T10:43:07.383Z,58.50
2019-05-05T10:45:36.035Z,55.40
2019-05-05T10:48:04.645Z,53.30
2019-05-05T10:50:34.262Z,53.50
2019-05-05T10:53:04.579Z,52.60
2019-05-05T10:55:34.640Z,50.60
2019-05-05T10:58:03.936Z,50.00
2019-05-05T11:00:47.909Z,49.80
2019-05-05T11:03:16.614Z,50.70
2019-05-05T11:05:45.483Z,45.90
2019-05-05T11:08:14.123Z,44.50
2019-05-05T11:10:44.856Z,44.80
2019-05-05T11:13:13.242Z,45.20
2019-05-05T11:15:43.988Z,44.60
2019-05-05T11:18:14.434Z,44.50
2019-05-05T11:20:44.532Z,43.50
2019-05-05T11:23:14.830Z,41.30
2019-05-05T11:25:44.199Z,43.80
2019-05-05T11:28:13.162Z,45.50
2019-05-05T11:30:44.945Z,44.90
2019-05-05T11:33:30.020Z,44.60
2019-05-05T11:36:13.614Z,45.10
2019-05-05T11:38:44.376Z,46.70
2019-05-05T11:41:14.439Z,44.30
2019-05-05T11:43:43.141Z,44.80
2019-05-05T11:46:13.947Z,45.00
2019-05-05T11:48:43.909Z,46.10
2019-05-05T11:51:14.912Z,45.90
2019-05-05T11:53:44.708Z,46.00
2019-05-05T11:56:14.456Z,46.00
2019-05-05T11:58:44.260Z,47.40
2019-05-05T12:01:13.846Z,48.30
2019-05-05T12:03:44.347Z,50.20
2019-05-05T12:06:14.760Z,50.10
2019-05-05T12:08:45.756Z,50.50
2019-05-05T12:11:15.008Z,49.50
2019-05-05T12:13:45.062Z,46.60
2019-05-05T12:16:15.360Z,47.60
2019-05-05T12:18:44.981Z,46.80
2019-05-05T12:21:14.114Z,46.70
2019-05-05T12:23:44.447Z,46.30
2019-05-05T12:26:26.962Z,47.60
2019-05-05T12:29:00.000Z,48.50
2019-05-05T12:31:30.242Z,48.80
2019-05-05T12:33:58.870Z,50.50
2019-05-05T12:36:27.529Z,49.40
2019-05-05T12:38:56.158Z,49.40
2019-05-05T12:41:24.863Z,50.50
2019-05-05T12:43:54.913Z,49.80
2019-05-05T12:46:40.697Z,49.90
2019-05-05T12:49:10.834Z,50.10
2019-05-05T12:51:39.463Z,47.80
2019-05-05T12:54:08.275Z,47.60
2019-05-05T12:56:36.932Z,46.30
2019-05-05T12:59:07.118Z,43.80
2019-05-05T13:01:37.736Z,44.50
2019-05-05T13:04:06.350Z,44.10
2019-05-05T13:06:34.961Z,44.50
2019-05-05T13:09:05.115Z,42.30
2019-05-05T13:11:34.347Z,43.40
2019-05-05T13:14:03.915Z,42.00
2019-05-05T13:16:32.705Z,41.90
2019-05-05T13:19:04.413Z,41.80
2019-05-05T13:21:34.853Z,44.30
2019-05-05T13:24:05.210Z,44.70
2019-05-05T13:26:35.406Z,45.50
2019-05-05T13:29:04.191Z,46.60
2019-05-05T13:31:33.754Z,47.30
2019-05-05T13:34:04.332Z,45.60
2019-05-05T13:36:33.425Z,45.70
2019-05-05T13:39:02.122Z,46.30
2019-05-05T13:41:30.740Z,44.50
2019-05-05T13:44:00.374Z,44.70
2019-05-05T13:46:30.647Z,42.90
2019-05-05T13:49:19.099Z,43.40
2019-05-05T13:51:47.662Z,42.20
2019-05-05T13:54:16.347Z,44.70
2019-05-05T13:56:45.158Z,42.40
2019-05-05T13:59:14.204Z,41.00
2019-05-05T14:01:44.844Z,39.70
2019-05-05T14:04:13.437Z,39.80
2019-05-05T14:06:44.017Z,39.50
2019-05-05T14:09:13.802Z,39.30
2019-05-05T14:11:44.390Z,39.40
2019-05-05T14:14:13.818Z,38.70
2019-05-05T14:16:44.615Z,38.80
2019-05-05T14:19:14.675Z,38.10
2019-05-05T14:21:44.607Z,37.80
2019-05-05T14:24:15.208Z,37.50
2019-05-05T14:26:43.819Z,37.80
2019-05-05T14:29:14.656Z,38.90
2019-05-05T14:31:44.565Z,39.80
2019-05-05T14:34:30.064Z,39.40
2019-05-05T14:37:16.952Z,39.70
2019-05-05T14:39:45.604Z,43.30
2019-05-05T14:42:14.718Z,46.00
2019-05-05T14:44:43.795Z,45.20
2019-05-05T14:47:13.635Z,44.50
2019-05-05T14:49:44.294Z,45.60
2019-05-05T14:52:13.699Z,45.70
2019-05-05T14:54:43.476Z,46.80
2019-05-05T14:57:13.824Z,47.50
2019-05-05T14:59:42.321Z,47.20
2019-05-05T15:02:10.916Z,47.00
2019-05-05T15:04:41.117Z,46.80
2019-05-05T15:07:14.568Z,47.70
2019-05-05T15:09:47.851Z,48.50
2019-05-05T15:12:18.187Z,48.70
2019-05-05T15:14:46.803Z,48.50
2019-05-05T15:17:15.468Z,47.60
2019-05-05T15:19:44.146Z,47.40
2019-05-05T15:22:15.063Z,49.00
2019-05-05T15:24:44.191Z,49.80
2019-05-05T15:27:13.083Z,50.20
2019-05-05T15:29:43.577Z,51.10
2019-05-05T15:32:11.936Z,50.60
2019-05-05T15:34:40.492Z,50.00
2019-05-05T15:37:09.120Z,50.70
2019-05-05T15:39:37.824Z,49.90
2019-05-05T15:42:06.493Z,50.90
2019-05-05T15:44:35.015Z,50.10
2019-05-05T15:47:03.773Z,50.20
2019-05-05T15:49:32.497Z,49.00
2019-05-05T15:52:01.015Z,48.50
2019-05-05T15:54:29.762Z,50.30
2019-05-05T15:57:05.459Z,51.40
2019-05-05T15:59:28.573Z,52.90
2019-05-05T16:01:57.239Z,53.00
2019-05-05T16:04:25.782Z,52.50
2019-05-05T16:06:54.416Z,53.40
2019-05-05T16:09:22.957Z,53.00
2019-05-05T16:11:51.670Z,54.10
2019-05-05T16:14:20.997Z,54.70
2019-05-05T16:16:56.903Z,55.20
2019-05-05T16:19:28.120Z,56.20
2019-05-05T16:21:58.526Z,57.00
2019-05-05T16:24:28.692Z,57.30
2019-05-05T16:26:57.424Z,58.30
2019-05-05T16:29:25.884Z,58.50
2019-05-05T16:31:54.390Z,57.20
2019-05-05T16:34:23.577Z,55.10
2019-05-05T16:36:54.569Z,54.30
2019-05-05T16:39:22.549Z,52.90
2019-05-05T16:41:51.159Z,52.50
2019-05-05T16:44:19.827Z,53.10
2019-05-05T16:46:48.359Z,52.40
2019-05-05T16:49:17.020Z,52.50
2019-05-05T16:51:49.946Z,53.80
2019-05-05T16:54:20.265Z,54.80
2019-05-05T16:56:48.822Z,54.10
2019-05-05T16:59:17.420Z,53.60
2019-05-05T17:01:45.994Z,54.00
2019-05-05T17:04:14.640Z,54.60
2019-05-05T17:06:45.630Z,54.90
2019-05-05T17:09:14.954Z,54.50
2019-05-05T17:11:45.284Z,55.50
2019-05-05T17:14:23.319Z,54.80
2019-05-05T17:17:03.845Z,54.60
2019-05-05T17:19:34.402Z,54.80
2019-05-05T17:22:06.716Z,55.40
2019-05-05T17:24:35.321Z,56.20
2019-05-05T17:27:03.962Z,55.90
2019-05-05T17:29:34.370Z,55.50
2019-05-05T17:32:03.199Z,56.20
2019-05-05T17:34:31.685Z,57.40
2019-05-05T17:37:04.141Z,57.10
2019-05-05T17:39:34.418Z,56.40
2019-05-05T17:42:14.223Z,56.20
2019-05-05T17:44:47.386Z,56.50
2019-05-05T17:47:17.663Z,55.30
2019-05-05T17:49:59.651Z,55.70
2019-05-05T17:52:29.981Z,56.00
2019-05-05T17:54:59.516Z,55.20
2019-05-05T17:57:28.117Z,54.70
2019-05-05T17:59:56.987Z,54.70
2019-05-05T18:02:25.777Z,54.70
2019-05-05T18:04:56.327Z,55.40
2019-05-05T18:10:08.215Z,55.70
2019-05-05T18:12:54.682Z,55.30
2019-05-05T18:15:43.326Z,55.50
2019-05-05T18:18:11.588Z,55.50
2019-05-05T18:20:40.245Z,55.90
2019-05-05T18:23:08.897Z,56.50
2019-05-05T18:25:37.537Z,57.20
2019-05-05T18:28:16.186Z,58.10
2019-05-05T18:30:36.702Z,57.90
2019-05-05T18:33:05.569Z,58.00
2019-05-05T18:35:34.502Z,58.70
2019-05-05T18:38:04.081Z,58.90
2019-05-05T18:40:33.701Z,59.20
2019-05-05T18:43:04.019Z,59.40
2019-05-05T18:45:32.801Z,59.00
2019-05-05T18:48:01.445Z,59.30
2019-05-05T18:50:30.078Z,59.80
2019-05-05T18:53:04.524Z,60.30
2019-05-05T18:55:33.899Z,60.30
2019-05-05T18:58:04.288Z,60.80
2019-05-05T19:00:34.541Z,60.60
2019-05-05T19:03:17.565Z,61.40
2019-05-05T19:05:36.718Z,62.10
2019-05-05T19:08:10.589Z,62.50
2019-05-05T19:10:39.342Z,63.00
2019-05-05T19:13:07.979Z,63.90
2019-05-05T19:15:36.694Z,63.80
2019-05-05T19:18:06.573Z,64.50
2019-05-05T19:20:37.105Z,64.90
2019-05-05T19:23:06.041Z,64.50
2019-05-05T19:25:35.731Z,64.90
2019-05-05T19:28:04.898Z,65.50
2019-05-05T19:30:35.730Z,65.60
2019-05-05T19:33:04.501Z,65.90
2019-05-05T19:35:43.595Z,66.60
2019-05-05T19:38:04.954Z,67.10
2019-05-05T19:40:34.048Z,67.50
2019-05-05T19:43:04.601Z,67.20
2019-05-05T19:45:34.399Z,67.80
2019-05-05T19:48:05.557Z,67.70
2019-05-05T19:50:35.289Z,68.30
2019-05-05T19:53:04.674Z,68.00
2019-05-05T19:55:36.421Z,69.10
2019-05-05T19:58:05.097Z,68.60
2019-05-05T20:00:34.812Z,69.20
2019-05-05T20:03:05.040Z,69.30
2019-05-05T20:05:34.183Z,69.70
2019-05-05T20:08:03.989Z,70.20
2019-05-05T20:10:32.887Z,70.10
2019-05-05T20:13:01.602Z,70.20
2019-05-05T20:15:33.726Z,71.20
2019-05-05T20:18:02.156Z,72.20
2019-05-05T20:20:30.773Z,72.40
2019-05-05T20:22:59.332Z,72.70
2019-05-05T20:25:27.904Z,72.80
2019-05-05T20:27:56.571Z,73.30
2019-05-05T20:30:25.265Z,72.80
2019-05-05T20:33:01.193Z,73.60
2019-05-05T20:35:33.572Z,74.10
2019-05-05T20:38:14.145Z,74.00
2019-05-05T20:40:44.427Z,74.10
2019-05-05T20:43:14.374Z,74.60
2019-05-05T20:45:44.262Z,74.20
2019-05-05T20:48:13.078Z,74.70
2019-05-05T20:50:43.744Z,74.90
2019-05-05T20:53:24.600Z,75.00
2019-05-05T20:55:49.224Z,75.20
2019-05-05T20:58:18.087Z,75.10
2019-05-05T21:00:47.305Z,75.60
2019-05-05T21:03:16.199Z,75.40
2019-05-05T21:05:44.980Z,75.90
2019-05-05T21:08:14.186Z,76.10
2019-05-05T21:10:44.254Z,75.80
2019-05-05T21:13:14.383Z,75.70
2019-05-05T21:15:45.026Z,76.80
2019-05-05T21:18:15.405Z,76.90
2019-05-05T21:20:45.570Z,77.70
2019-05-05T21:23:24.911Z,77.00
2019-05-05T21:25:55.886Z,77.90
2019-05-05T21:28:24.864Z,78.80
2019-05-05T21:30:54.083Z,79.00
2019-05-05T21:33:23.963Z,79.40
2019-05-05T21:35:55.098Z,79.70
2019-05-05T21:38:23.642Z,79.20
2019-05-05T21:40:52.468Z,78.70
2019-05-05T21:43:21.440Z,79.30
2019-05-05T21:45:50.369Z,78.90
2019-05-05T21:48:19.241Z,78.90
2019-05-05T21:50:58.492Z,79.50
2019-05-05T21:53:41.219Z,79.40
2019-05-05T21:56:17.554Z,79.20
2019-05-05T21:58:47.386Z,78.60
2019-05-05T22:01:17.828Z,78.90
2019-05-05T22:03:46.572Z,78.70
2019-05-05T22:06:15.520Z,78.40
2019-05-05T22:08:44.282Z,77.90
2019-05-05T22:11:14.663Z,78.20
2019-05-05T22:13:44.252Z,78.30
2019-05-05T22:16:13.750Z,78.50
2019-05-05T22:18:44.695Z,78.70
2019-05-05T22:21:21.037Z,78.70
2019-05-05T22:24:07.984Z,78.80
2019-05-05T22:26:37.028Z,79.00
2019-05-05T22:29:07.899Z,79.20
2019-05-05T22:31:36.554Z,78.80
2019-05-05T22:34:05.532Z,79.40
2019-05-05T22:36:34.915Z,79.00
2019-05-05T22:39:04.820Z,77.80
2019-05-05T22:41:33.758Z,77.20
2019-05-05T22:44:04.458Z,77.50
2019-05-05T22:46:34.767Z,78.50
2019-05-05T22:49:03.990Z,79.20
2019-05-05T22:51:33.795Z,80.00
2019-05-05T22:54:03.942Z,80.10
2019-05-05T22:56:33.729Z,80.10
2019-05-05T22:59:04.357Z,79.90
2019-05-05T23:01:33.484Z,80.20
2019-05-05T23:04:03.886Z,80.10
2019-05-05T23:06:43.805Z,79.70
2019-05-05T23:09:15.658Z,80.30
2019-05-05T23:11:44.588Z,80.50
2019-05-05T23:14:28.511Z,80.60
2019-05-05T23:17:16.945Z,80.10
2019-05-05T23:19:50.144Z,80.20
2019-05-05T23:22:20.606Z,80.40
2019-05-05T23:24:51.052Z,80.30
2019-05-05T23:27:37.746Z,80.60
2019-05-05T23:30:07.833Z,80.30
2019-05-05T23:32:36.648Z,80.40
2019-05-05T23:35:06.040Z,80.40
2019-05-05T23:37:36.482Z,80.60
2019-05-05T23:40:06.595Z,80.20
2019-05-05T23:42:35.340Z,80.10
2019-05-05T23:45:05.292Z,80.50
2019-05-05T23:47:34.524Z,79.90
2019-05-05T23:50:04.531Z,80.00
2019-05-05T23:52:34.985Z,79.60
2019-05-05T23:55:05.182Z,80.40
2019-05-05T23:57:33.757Z,80.70
